createdAt,value
2023-02-24T00:02:31.228Z,82.78
2023-02-24T00:05:44.390Z,82.79
2023-02-24T00:08:53.519Z,82.45
2023-02-24T00:12:05.129Z,82.25
2023-02-24T00:15:15.310Z,82.43
2023-02-24T00:18:23.671Z,82.08
2023-02-24T00:21:32.132Z,81.98
2023-02-24T00:24:40.373Z,81.96
2023-02-24T00:27:48.639Z,82.01
2023-02-24T00:30:58.369Z,81.09
2023-02-24T00:34:07.657Z,81.60
2023-02-24T00:37:16.340Z,81.47
2023-02-24T00:40:26.767Z,81.12
2023-02-24T00:43:37.111Z,81.72
2023-02-24T00:46:48.054Z,82.07
2023-02-24T00:49:56.636Z,82.52
2023-02-24T00:53:04.883Z,82.01
2023-02-24T00:56:13.628Z,82.07
2023-02-24T00:59:23.978Z,82.06
2023-02-24T01:02:33.625Z,82.14
2023-02-24T01:05:41.816Z,82.14
2023-02-24T01:08:50.897Z,82.02
2023-02-24T01:12:17.554Z,82.08
2023-02-24T01:15:26.384Z,82.22
2023-02-24T01:18:36.602Z,81.81
2023-02-24T01:21:46.152Z,81.47
2023-02-24T01:24:54.462Z,80.98
2023-02-24T01:28:02.855Z,81.16
2023-02-24T01:31:17.665Z,81.77
2023-02-24T01:34:29.009Z,81.28
2023-02-24T01:37:40.098Z,81.71
2023-02-24T01:40:58.342Z,81.62
2023-02-24T01:44:10.047Z,82.00
2023-02-24T01:47:21.583Z,81.95
2023-02-24T01:50:33.042Z,82.51
2023-02-24T01:53:41.373Z,83.06
2023-02-24T01:56:52.356Z,83.08
2023-02-24T02:00:25.589Z,82.54
2023-02-24T02:03:38.969Z,83.35
2023-02-24T02:06:49.749Z,83.34
2023-02-24T02:14:52.398Z,83.20
2023-02-24T02:18:10.421Z,83.02
2023-02-24T02:21:56.301Z,83.09
2023-02-24T02:25:16.553Z,83.08
2023-02-24T02:28:59.002Z,82.45
2023-02-24T02:32:43.954Z,83.16
2023-02-24T02:36:03.262Z,83.56
2023-02-24T02:39:23.895Z,82.62
2023-02-24T02:42:43.920Z,82.48
2023-02-24T02:46:03.662Z,82.12
2023-02-24T02:49:20.787Z,83.06
2023-02-24T02:52:42.288Z,83.68
2023-02-24T02:55:59.236Z,84.19
2023-02-24T02:59:12.769Z,84.19
2023-02-24T03:02:28.405Z,84.18
2023-02-24T03:05:46.984Z,84.61
2023-02-24T03:09:11.342Z,84.88
2023-02-24T03:12:24.382Z,84.48
2023-02-24T03:15:35.271Z,84.71
2023-02-24T03:18:53.045Z,84.81
2023-02-24T03:22:12.236Z,84.85
2023-02-24T03:25:30.200Z,85.19
2023-02-24T03:28:46.445Z,84.66
2023-02-24T03:32:05.483Z,84.31
2023-02-24T03:35:21.812Z,84.07
2023-02-24T03:38:34.052Z,83.68
2023-02-24T03:41:56.198Z,84.75
2023-02-24T03:45:07.812Z,85.49
2023-02-24T03:48:17.345Z,84.85
2023-02-24T03:51:27.670Z,85.56
2023-02-24T03:55:00.154Z,85.35
2023-02-24T03:58:22.996Z,85.46
2023-02-24T04:01:43.041Z,84.69
2023-02-24T04:05:00.532Z,84.87
2023-02-24T04:08:20.167Z,85.02
2023-02-24T04:11:38.997Z,84.70
2023-02-24T04:14:58.247Z,83.82
2023-02-24T04:18:16.655Z,83.56
2023-02-24T04:21:31.286Z,83.39
2023-02-24T04:24:42.770Z,83.57
2023-02-24T04:27:53.163Z,83.13
2023-02-24T04:31:11.189Z,83.53
2023-02-24T04:34:21.427Z,83.79
2023-02-24T04:37:33.858Z,84.58
2023-02-24T04:40:43.615Z,84.22
2023-02-24T04:43:52.335Z,84.18
2023-02-24T04:47:01.946Z,84.33
2023-02-24T04:50:12.280Z,84.17
2023-02-24T04:53:26.873Z,84.15
2023-02-24T04:56:35.609Z,84.09
2023-02-24T04:59:44.250Z,84.86
2023-02-24T05:02:57.385Z,83.49
2023-02-24T05:06:08.629Z,83.08
2023-02-24T05:09:19.045Z,81.17
2023-02-24T05:17:08.647Z,83.50
2023-02-24T05:20:36.782Z,84.13
2023-02-24T05:23:47.654Z,86.17
2023-02-24T05:26:59.448Z,85.56
2023-02-24T05:30:09.725Z,85.76
2023-02-24T05:33:21.527Z,85.37
2023-02-24T05:36:36.446Z,85.87
2023-02-24T05:39:45.069Z,85.62
2023-02-24T05:42:53.615Z,85.21
2023-02-24T05:46:03.794Z,84.85
2023-02-24T05:49:16.313Z,85.31
2023-02-24T05:56:08.396Z,84.67
2023-02-24T05:59:21.360Z,84.24
2023-02-24T06:02:37.183Z,84.17
2023-02-24T06:05:45.486Z,84.33
2023-02-24T06:08:55.332Z,83.54
2023-02-24T06:12:05.797Z,83.28
2023-02-24T06:15:14.189Z,83.70
2023-02-24T06:18:22.368Z,83.78
2023-02-24T06:21:30.786Z,82.82
2023-02-24T06:24:39.488Z,82.14
2023-02-24T06:27:53.412Z,82.89
2023-02-24T06:31:06.783Z,82.50
2023-02-24T06:34:15.203Z,82.58
2023-02-24T06:37:23.753Z,80.17
2023-02-24T06:40:31.913Z,80.49
2023-02-24T06:43:44.662Z,81.42
2023-02-24T06:46:52.782Z,82.80
2023-02-24T06:50:00.918Z,82.41
2023-02-24T06:53:16.897Z,82.30
2023-02-24T06:56:25.275Z,82.40
2023-02-24T06:59:34.877Z,83.32
2023-02-24T07:02:43.195Z,82.40
2023-02-24T07:06:10.923Z,82.20
2023-02-24T07:09:23.249Z,81.69
2023-02-24T07:12:31.347Z,80.84
2023-02-24T07:15:40.910Z,80.47
2023-02-24T07:18:50.111Z,81.05
2023-02-24T07:22:02.242Z,80.00
2023-02-24T07:25:30.397Z,78.87
2023-02-24T07:28:40.226Z,77.54
2023-02-24T07:31:54.977Z,77.62
2023-02-24T07:35:03.502Z,76.37
2023-02-24T07:38:17.460Z,76.21
2023-02-24T07:41:28.456Z,76.37
2023-02-24T07:44:38.996Z,76.08
2023-02-24T07:47:49.509Z,74.63
2023-02-24T07:50:59.391Z,74.30
2023-02-24T07:54:08.869Z,75.57
2023-02-24T07:57:19.014Z,76.22
2023-02-24T08:00:28.432Z,76.55
2023-02-24T08:03:41.466Z,75.26
2023-02-24T08:06:56.390Z,73.35
2023-02-24T08:10:14.263Z,72.38
2023-02-24T08:13:22.690Z,71.73
2023-02-24T08:16:39.513Z,71.16
2023-02-24T08:20:17.267Z,70.06
2023-02-24T08:23:25.734Z,69.06
2023-02-24T08:26:41.727Z,69.93
2023-02-24T08:30:02.897Z,69.87
2023-02-24T08:33:16.081Z,69.35
2023-02-24T08:36:26.135Z,68.37
2023-02-24T08:39:36.653Z,68.29
2023-02-24T08:42:45.019Z,68.33
2023-02-24T08:45:57.665Z,68.63
2023-02-24T08:49:10.784Z,68.71
2023-02-24T08:52:20.558Z,69.18
2023-02-24T08:55:33.067Z,70.01
2023-02-24T08:58:47.525Z,70.34
2023-02-24T09:02:17.605Z,71.16
2023-02-24T09:05:26.078Z,70.86
2023-02-24T09:08:39.098Z,70.68
2023-02-24T09:11:49.386Z,70.46
2023-02-24T09:15:01.299Z,70.53
2023-02-24T09:18:14.212Z,70.22
2023-02-24T09:21:39.847Z,69.12
2023-02-24T09:25:10.085Z,68.40
2023-02-24T09:28:24.574Z,69.09
2023-02-24T09:31:48.117Z,68.92
2023-02-24T09:34:56.560Z,67.38
2023-02-24T09:38:06.521Z,68.55
2023-02-24T09:41:53.864Z,67.59
2023-02-24T09:45:11.455Z,66.89
2023-02-24T09:48:32.043Z,65.56
2023-02-24T09:51:43.493Z,64.29
2023-02-24T09:55:11.292Z,64.72
2023-02-24T09:58:43.670Z,63.28
2023-02-24T10:02:04.016Z,63.44
2023-02-24T10:05:27.354Z,63.50
2023-02-24T10:08:42.108Z,63.28
2023-02-24T10:12:04.316Z,62.29
2023-02-24T10:15:19.890Z,63.05
2023-02-24T10:18:33.204Z,62.98
2023-02-24T10:21:49.897Z,60.92
2023-02-24T10:25:12.312Z,60.18
2023-02-24T10:28:36.709Z,60.80
2023-02-24T10:31:57.788Z,61.24
2023-02-24T10:35:16.560Z,60.91
2023-02-24T10:38:28.670Z,60.70
2023-02-24T10:41:47.968Z,59.54
2023-02-24T10:45:17.961Z,59.80
2023-02-24T10:48:43.602Z,56.92
2023-02-24T10:51:54.617Z,57.07
2023-02-24T10:55:08.792Z,55.68
2023-02-24T10:58:37.830Z,54.77
2023-02-24T11:01:55.099Z,55.36
2023-02-24T11:05:27.290Z,55.51
2023-02-24T11:08:40.023Z,55.17
2023-02-24T11:12:07.359Z,54.92
2023-02-24T11:15:41.049Z,54.55
2023-02-24T11:18:52.638Z,54.03
2023-02-24T11:22:08.772Z,54.33
2023-02-24T11:25:26.866Z,53.89
2023-02-24T11:29:06.651Z,54.02
2023-02-24T11:32:39.272Z,54.55
2023-02-24T11:36:02.588Z,56.11
2023-02-24T11:39:49.042Z,55.99
2023-02-24T11:43:01.884Z,57.78
2023-02-24T11:46:19.241Z,58.40
2023-02-24T11:49:35.417Z,57.36
2023-02-24T11:58:01.420Z,56.46
2023-02-24T12:01:18.467Z,56.44
2023-02-24T12:04:33.826Z,56.32
2023-02-24T12:07:50.327Z,55.99
2023-02-24T12:11:07.154Z,56.77
2023-02-24T12:14:27.708Z,56.21
2023-02-24T12:17:47.226Z,56.81
2023-02-24T12:21:01.704Z,57.64
2023-02-24T12:24:14.540Z,57.31
2023-02-24T12:27:42.370Z,58.12
2023-02-24T12:31:22.273Z,56.92
2023-02-24T12:34:53.245Z,56.95
2023-02-24T12:38:22.484Z,55.67
2023-02-24T12:41:49.655Z,56.55
2023-02-24T12:45:12.316Z,56.49
2023-02-24T12:48:49.102Z,56.23
2023-02-24T12:52:14.954Z,56.61
2023-02-24T12:55:34.034Z,56.68
2023-02-24T12:58:47.224Z,56.29
2023-02-24T13:02:06.392Z,56.39
2023-02-24T13:05:25.024Z,57.35
2023-02-24T13:08:50.362Z,56.37
2023-02-24T13:12:07.954Z,56.75
2023-02-24T13:15:25.332Z,57.21
2023-02-24T13:18:36.975Z,57.59
2023-02-24T13:22:05.363Z,57.66
2023-02-24T13:25:23.578Z,57.39
2023-02-24T13:28:36.459Z,56.97
2023-02-24T13:31:49.238Z,57.55
2023-02-24T13:34:59.743Z,57.21
2023-02-24T13:38:27.919Z,58.50
2023-02-24T13:41:42.475Z,59.86
2023-02-24T13:44:55.262Z,60.71
2023-02-24T13:48:41.112Z,61.35
2023-02-24T13:52:03.641Z,60.52
2023-02-24T13:55:52.223Z,60.03
2023-02-24T13:59:35.053Z,59.70
2023-02-24T14:02:45.210Z,58.59
2023-02-24T14:05:55.475Z,59.83
2023-02-24T14:09:07.603Z,60.07
2023-02-24T14:12:22.320Z,60.72
2023-02-24T14:15:31.521Z,60.56
2023-02-24T14:18:39.799Z,60.94
2023-02-24T14:21:52.012Z,60.24
2023-02-24T14:25:04.597Z,60.88
2023-02-24T14:28:24.574Z,60.45
2023-02-24T14:31:32.916Z,60.78
2023-02-24T14:34:41.999Z,61.88
2023-02-24T14:37:50.292Z,62.00
2023-02-24T14:40:59.405Z,62.22
2023-02-24T14:44:22.598Z,62.74
2023-02-24T14:47:32.594Z,62.27
2023-02-24T14:50:41.477Z,62.68
2023-02-24T14:53:55.593Z,63.94
2023-02-24T14:57:04.911Z,65.57
2023-02-24T15:00:24.926Z,66.94
2023-02-24T15:03:39.255Z,66.03
2023-02-24T15:06:49.069Z,67.64
2023-02-24T15:09:59.028Z,66.17
2023-02-24T15:13:18.015Z,67.72
2023-02-24T15:16:38.397Z,69.59
2023-02-24T15:19:54.390Z,70.55
2023-02-24T15:23:03.892Z,70.02
2023-02-24T15:26:28.115Z,70.53
2023-02-24T15:29:36.536Z,70.63
2023-02-24T15:32:46.619Z,70.67
2023-02-24T15:35:58.991Z,71.04
2023-02-24T15:39:10.710Z,70.56
2023-02-24T15:42:28.443Z,71.07
2023-02-24T15:45:40.209Z,71.20
2023-02-24T15:48:55.477Z,72.01
2023-02-24T15:52:05.257Z,71.87
2023-02-24T15:55:18.142Z,73.01
2023-02-24T15:58:26.843Z,73.83
2023-02-24T16:01:35.624Z,74.65
2023-02-24T16:04:47.198Z,74.69
2023-02-24T16:07:55.804Z,74.01
2023-02-24T16:11:04.114Z,74.40
2023-02-24T16:14:19.240Z,74.31
2023-02-24T16:17:35.059Z,74.49
2023-02-24T16:20:48.825Z,75.05
2023-02-24T16:23:57.369Z,75.65
2023-02-24T16:27:06.644Z,75.82
2023-02-24T16:30:22.482Z,75.01
2023-02-24T16:33:36.715Z,75.76
2023-02-24T16:36:52.077Z,75.25
2023-02-24T16:40:00.776Z,75.32
2023-02-24T16:43:09.739Z,75.84
2023-02-24T16:46:22.396Z,75.58
2023-02-24T16:49:31.291Z,76.07
2023-02-24T16:52:41.770Z,75.56
2023-02-24T16:55:51.720Z,76.21
2023-02-24T16:59:00.898Z,75.58
2023-02-24T17:02:21.790Z,75.58
2023-02-24T17:05:30.462Z,76.20
2023-02-24T17:08:41.786Z,76.99
2023-02-24T17:11:50.395Z,77.32
2023-02-24T17:14:59.385Z,77.93
2023-02-24T17:18:08.853Z,79.27
2023-02-24T17:21:18.476Z,79.30
2023-02-24T17:24:28.677Z,80.58
2023-02-24T17:27:37.818Z,80.08
2023-02-24T17:30:47.223Z,81.99
2023-02-24T17:33:56.394Z,81.29
2023-02-24T17:37:05.662Z,82.09
2023-02-24T17:40:18.672Z,80.94
2023-02-24T17:43:27.660Z,80.82
2023-02-24T17:46:36.503Z,80.97
2023-02-24T17:49:44.942Z,80.60
2023-02-24T17:52:53.716Z,81.28
2023-02-24T17:56:08.799Z,81.33
2023-02-24T17:59:17.439Z,80.70
2023-02-24T18:02:26.001Z,79.98
2023-02-24T18:05:34.588Z,80.98
2023-02-24T18:08:43.278Z,81.26
2023-02-24T18:11:53.190Z,81.84
2023-02-24T18:15:08.748Z,81.48
2023-02-24T18:18:17.968Z,81.35
2023-02-24T18:21:27.274Z,81.10
2023-02-24T18:24:35.735Z,80.75
2023-02-24T18:27:45.408Z,80.51
2023-02-24T18:30:54.009Z,80.11
2023-02-24T18:34:02.775Z,80.49
2023-02-24T18:37:11.109Z,79.85
2023-02-24T18:40:19.850Z,79.63
2023-02-24T18:43:30.218Z,79.52
2023-02-24T18:46:38.816Z,78.82
2023-02-24T18:49:47.120Z,78.85
2023-02-24T18:52:55.436Z,79.55
2023-02-24T18:56:06.692Z,79.65
2023-02-24T18:59:16.876Z,80.01
2023-02-24T19:02:25.046Z,80.08
2023-02-24T19:05:38.378Z,80.19
2023-02-24T19:08:48.769Z,80.66
2023-02-24T19:11:57.147Z,80.00
2023-02-24T19:15:09.272Z,79.91
2023-02-24T19:18:18.357Z,80.52
2023-02-24T19:21:29.484Z,79.97
2023-02-24T19:24:38.022Z,80.05
2023-02-24T19:27:47.686Z,81.33
2023-02-24T19:30:57.517Z,81.17
2023-02-24T19:34:12.147Z,81.38
2023-02-24T19:37:20.785Z,80.86
2023-02-24T19:40:29.084Z,81.67
2023-02-24T19:43:37.640Z,82.02
2023-02-24T19:46:47.790Z,83.01
2023-02-24T19:49:55.934Z,83.54
2023-02-24T19:53:04.823Z,82.58
2023-02-24T19:56:13.399Z,82.54
2023-02-24T19:59:21.742Z,84.08
2023-02-24T20:02:31.743Z,83.40
2023-02-24T20:05:43.506Z,83.30
2023-02-24T20:08:53.814Z,83.88
2023-02-24T20:12:02.439Z,84.15
2023-02-24T20:15:12.074Z,83.67
2023-02-24T20:18:21.861Z,83.98
2023-02-24T20:21:31.602Z,83.69
2023-02-24T20:24:39.765Z,83.50
2023-02-24T20:27:48.119Z,83.54
2023-02-24T20:30:59.229Z,83.48
2023-02-24T20:34:10.703Z,83.76
2023-02-24T20:37:19.355Z,84.04
2023-02-24T20:40:28.700Z,83.70
2023-02-24T20:43:37.550Z,83.02
2023-02-24T20:46:46.108Z,84.01
2023-02-24T20:49:56.162Z,84.22
2023-02-24T20:53:04.812Z,84.31
2023-02-24T20:56:22.029Z,84.34
2023-02-24T20:59:30.422Z,84.57
2023-02-24T21:02:41.118Z,84.13
2023-02-24T21:05:58.836Z,84.65
2023-02-24T21:09:16.312Z,85.26
2023-02-24T21:12:24.906Z,85.19
2023-02-24T21:15:33.119Z,85.97
2023-02-24T21:18:43.873Z,85.82
2023-02-24T21:21:53.764Z,86.56
2023-02-24T21:25:02.497Z,85.97
2023-02-24T21:28:11.398Z,85.46
2023-02-24T21:31:21.693Z,85.79
2023-02-24T21:34:30.597Z,85.16
2023-02-24T21:37:40.974Z,83.69
2023-02-24T21:40:50.049Z,86.28
2023-02-24T21:44:00.521Z,87.16
2023-02-24T21:47:09.549Z,87.46
2023-02-24T21:50:18.917Z,86.41
2023-02-24T21:53:29.894Z,85.30
2023-02-24T21:56:37.997Z,84.70
2023-02-24T21:59:46.668Z,85.84
2023-02-24T22:02:56.926Z,84.70
2023-02-24T22:06:05.975Z,85.00
2023-02-24T22:09:19.465Z,85.84
2023-02-24T22:12:27.949Z,85.52
2023-02-24T22:15:39.661Z,85.57
2023-02-24T22:18:49.226Z,85.66
2023-02-24T22:22:00.518Z,86.01
2023-02-24T22:25:11.861Z,86.04
2023-02-24T22:28:20.273Z,85.93
2023-02-24T22:31:31.821Z,85.64
2023-02-24T22:34:41.495Z,85.25
2023-02-24T22:37:49.564Z,85.13
2023-02-24T22:41:00.950Z,86.48
2023-02-24T22:44:11.060Z,87.26
2023-02-24T22:47:19.470Z,85.93
2023-02-24T22:50:27.873Z,85.95
2023-02-24T22:53:39.506Z,86.59
2023-02-24T22:56:50.256Z,86.90
2023-02-24T22:59:58.961Z,86.11
2023-02-24T23:03:07.114Z,86.13
2023-02-24T23:06:18.673Z,86.58
2023-02-24T23:09:28.070Z,86.21
2023-02-24T23:12:37.999Z,86.24
2023-02-24T23:15:46.410Z,86.27
2023-02-24T23:18:58.278Z,85.99
2023-02-24T23:22:07.988Z,86.06
2023-02-24T23:25:16.296Z,85.92
2023-02-24T23:28:28.034Z,85.86
2023-02-24T23:31:36.554Z,85.91
2023-02-24T23:34:45.825Z,85.85
2023-02-24T23:37:53.910Z,86.50
2023-02-24T23:41:02.615Z,85.87
2023-02-24T23:44:12.469Z,86.49
2023-02-24T23:47:20.888Z,86.53
2023-02-24T23:50:29.296Z,87.14
2023-02-24T23:53:39.668Z,86.51
2023-02-24T23:56:48.361Z,86.67
2023-02-24T23:59:58.900Z,86.74
